sensor_id;sensor_type;location;lat;lon;timestamp;temperature;humidity
27164;DHT22;14685;50.618;7.024;2023-04-25T00:00:57;12.30;99.90
27164;DHT22;14685;50.618;7.024;2023-04-25T00:03:24;12.30;99.90
27164;DHT22;14685;50.618;7.024;2023-04-25T00:05:52;12.30;99.90
27164;DHT22;14685;50.618;7.024;2023-04-25T00:08:19;12.20;99.90
27164;DHT22;14685;50.618;7.024;2023-04-25T00:10:46;12.20;99.90
27164;DHT22;14685;50.618;7.024;2023-04-25T00:13:13;12.20;99.90
27164;DHT22;14685;50.618;7.024;2023-04-25T00:15:40;12.20;99.90
27164;DHT22;14685;50.618;7.024;2023-04-25T00:18:08;12.20;99.90
27164;DHT22;14685;50.618;7.024;2023-04-25T00:20:35;12.20;99.90
27164;DHT22;14685;50.618;7.024;2023-04-25T00:23:02;12.10;99.90
27164;DHT22;14685;50.618;7.024;2023-04-25T00:25:29;12.10;99.90
27164;DHT22;14685;50.618;7.024;2023-04-25T00:27:57;12.10;99.90
27164;DHT22;14685;50.618;7.024;2023-04-25T00:30:24;12.10;99.90
27164;DHT22;14685;50.618;7.024;2023-04-25T00:32:51;12.00;99.90
27164;DHT22;14685;50.618;7.024;2023-04-25T00:35:18;12.00;99.90
27164;DHT22;14685;50.618;7.024;2023-04-25T00:37:45;12.00;99.90
27164;DHT22;14685;50.618;7.024;2023-04-25T00:40:12;12.00;99.90
27164;DHT22;14685;50.618;7.024;2023-04-25T00:42:39;12.00;99.90
27164;DHT22;14685;50.618;7.024;2023-04-25T00:45:08;12.00;99.90
27164;DHT22;14685;50.618;7.024;2023-04-25T00:47:37;11.90;99.90
27164;DHT22;14685;50.618;7.024;2023-04-25T00:50:06;11.90;99.90
27164;DHT22;14685;50.618;7.024;2023-04-25T00:52:33;11.90;99.90
27164;DHT22;14685;50.618;7.024;2023-04-25T00:55:00;11.90;99.90
27164;DHT22;14685;50.618;7.024;2023-04-25T00:57:29;11.80;99.90
27164;DHT22;14685;50.618;7.024;2023-04-25T00:59:56;11.80;99.90
27164;DHT22;14685;50.618;7.024;2023-04-25T01:02:23;11.80;99.90
27164;DHT22;14685;50.618;7.024;2023-04-25T01:04:50;11.80;99.90
27164;DHT22;14685;50.618;7.024;2023-04-25T01:07:17;11.70;99.90
27164;DHT22;14685;50.618;7.024;2023-04-25T01:09:44;11.70;99.90
27164;DHT22;14685;50.618;7.024;2023-04-25T01:12:12;11.70;99.90
27164;DHT22;14685;50.618;7.024;2023-04-25T01:14:39;11.70;99.90
27164;DHT22;14685;50.618;7.024;2023-04-25T01:17:06;11.60;99.90
27164;DHT22;14685;50.618;7.024;2023-04-25T01:19:34;11.60;99.90
27164;DHT22;14685;50.618;7.024;2023-04-25T01:22:02;11.60;99.90
27164;DHT22;14685;50.618;7.024;2023-04-25T01:24:33;11.50;99.90
27164;DHT22;14685;50.618;7.024;2023-04-25T01:27:00;11.50;99.90
27164;DHT22;14685;50.618;7.024;2023-04-25T01:29:28;11.50;99.90
27164;DHT22;14685;50.618;7.024;2023-04-25T01:31:55;11.50;99.90
27164;DHT22;14685;50.618;7.024;2023-04-25T01:34:23;11.50;99.90
27164;DHT22;14685;50.618;7.024;2023-04-25T01:36:50;11.40;99.90
27164;DHT22;14685;50.618;7.024;2023-04-25T01:39:18;11.40;99.90
27164;DHT22;14685;50.618;7.024;2023-04-25T01:41:46;11.30;99.90
27164;DHT22;14685;50.618;7.024;2023-04-25T01:44:13;11.30;99.90
27164;DHT22;14685;50.618;7.024;2023-04-25T01:46:41;11.30;99.90
27164;DHT22;14685;50.618;7.024;2023-04-25T01:49:09;11.30;99.90
27164;DHT22;14685;50.618;7.024;2023-04-25T01:51:36;11.30;99.90
27164;DHT22;14685;50.618;7.024;2023-04-25T01:54:03;11.20;99.90
27164;DHT22;14685;50.618;7.024;2023-04-25T01:56:32;11.20;99.90
27164;DHT22;14685;50.618;7.024;2023-04-25T01:58:59;11.20;99.90
27164;DHT22;14685;50.618;7.024;2023-04-25T02:01:27;11.20;99.90
27164;DHT22;14685;50.618;7.024;2023-04-25T02:03:54;11.10;99.90
27164;DHT22;14685;50.618;7.024;2023-04-25T02:06:22;11.10;99.90
27164;DHT22;14685;50.618;7.024;2023-04-25T02:08:49;11.10;99.90
27164;DHT22;14685;50.618;7.024;2023-04-25T02:11:16;11.00;99.90
27164;DHT22;14685;50.618;7.024;2023-04-25T02:13:43;11.00;99.90
27164;DHT22;14685;50.618;7.024;2023-04-25T02:16:10;11.00;99.90
27164;DHT22;14685;50.618;7.024;2023-04-25T02:18:37;11.00;99.90
27164;DHT22;14685;50.618;7.024;2023-04-25T02:21:05;10.90;99.90
27164;DHT22;14685;50.618;7.024;2023-04-25T02:23:33;10.90;99.90
27164;DHT22;14685;50.618;7.024;2023-04-25T02:26:00;10.90;99.90
27164;DHT22;14685;50.618;7.024;2023-04-25T02:28:26;10.80;99.90
27164;DHT22;14685;50.618;7.024;2023-04-25T02:30:54;10.80;99.90
27164;DHT22;14685;50.618;7.024;2023-04-25T02:33:21;10.80;99.90
27164;DHT22;14685;50.618;7.024;2023-04-25T02:35:47;10.80;99.90
27164;DHT22;14685;50.618;7.024;2023-04-25T02:38:14;10.80;99.90
27164;DHT22;14685;50.618;7.024;2023-04-25T02:40:42;10.80;99.90
27164;DHT22;14685;50.618;7.024;2023-04-25T02:43:09;10.70;99.90
27164;DHT22;14685;50.618;7.024;2023-04-25T02:45:35;10.70;99.90
27164;DHT22;14685;50.618;7.024;2023-04-25T02:48:03;10.70;99.90
27164;DHT22;14685;50.618;7.024;2023-04-25T02:50:30;10.70;99.90
27164;DHT22;14685;50.618;7.024;2023-04-25T02:52:56;10.70;99.90
27164;DHT22;14685;50.618;7.024;2023-04-25T02:55:23;10.70;99.90
27164;DHT22;14685;50.618;7.024;2023-04-25T02:57:53;10.70;99.90
27164;DHT22;14685;50.618;7.024;2023-04-25T03:00:22;10.70;99.90
27164;DHT22;14685;50.618;7.024;2023-04-25T03:02:50;10.70;99.90
27164;DHT22;14685;50.618;7.024;2023-04-25T03:05:17;10.70;99.90
27164;DHT22;14685;50.618;7.024;2023-04-25T03:07:45;10.60;99.90
27164;DHT22;14685;50.618;7.024;2023-04-25T03:10:12;10.60;99.90
27164;DHT22;14685;50.618;7.024;2023-04-25T03:12:39;10.60;99.90
27164;DHT22;14685;50.618;7.024;2023-04-25T03:15:07;10.60;99.90
27164;DHT22;14685;50.618;7.024;2023-04-25T03:17:34;10.60;99.90
27164;DHT22;14685;50.618;7.024;2023-04-25T03:20:01;10.50;99.90
27164;DHT22;14685;50.618;7.024;2023-04-25T03:22:28;10.50;99.90
27164;DHT22;14685;50.618;7.024;2023-04-25T03:24:55;10.50;99.90
27164;DHT22;14685;50.618;7.024;2023-04-25T03:27:22;10.50;99.90
27164;DHT22;14685;50.618;7.024;2023-04-25T03:29:51;10.50;99.90
27164;DHT22;14685;50.618;7.024;2023-04-25T03:32:18;10.50;99.90
27164;DHT22;14685;50.618;7.024;2023-04-25T03:34:46;10.50;99.90
27164;DHT22;14685;50.618;7.024;2023-04-25T03:37:13;10.50;99.90
27164;DHT22;14685;50.618;7.024;2023-04-25T03:39:40;10.50;99.90
27164;DHT22;14685;50.618;7.024;2023-04-25T03:42:06;10.50;99.90
27164;DHT22;14685;50.618;7.024;2023-04-25T03:44:33;10.50;99.90
27164;DHT22;14685;50.618;7.024;2023-04-25T03:47:00;10.50;99.90
27164;DHT22;14685;50.618;7.024;2023-04-25T03:49:27;10.40;99.90
27164;DHT22;14685;50.618;7.024;2023-04-25T03:51:57;10.40;99.90
27164;DHT22;14685;50.618;7.024;2023-04-25T03:54:25;10.50;99.90
27164;DHT22;14685;50.618;7.024;2023-04-25T03:56:52;10.40;99.90
27164;DHT22;14685;50.618;7.024;2023-04-25T03:59:18;10.40;99.90
27164;DHT22;14685;50.618;7.024;2023-04-25T04:01:45;10.50;99.90
27164;DHT22;14685;50.618;7.024;2023-04-25T04:04:12;10.40;99.90
27164;DHT22;14685;50.618;7.024;2023-04-25T04:06:40;10.50;99.90
27164;DHT22;14685;50.618;7.024;2023-04-25T04:09:06;10.50;99.90
27164;DHT22;14685;50.618;7.024;2023-04-25T04:11:38;10.50;99.90
27164;DHT22;14685;50.618;7.024;2023-04-25T04:14:08;10.50;99.90
27164;DHT22;14685;50.618;7.024;2023-04-25T04:16:36;10.50;99.90
27164;DHT22;14685;50.618;7.024;2023-04-25T04:19:03;10.50;99.90
27164;DHT22;14685;50.618;7.024;2023-04-25T04:21:33;10.50;99.90
27164;DHT22;14685;50.618;7.024;2023-04-25T04:24:01;10.50;99.90
27164;DHT22;14685;50.618;7.024;2023-04-25T04:26:28;10.50;99.90
27164;DHT22;14685;50.618;7.024;2023-04-25T04:28:55;10.50;99.90
27164;DHT22;14685;50.618;7.024;2023-04-25T04:31:23;10.50;99.90
27164;DHT22;14685;50.618;7.024;2023-04-25T04:33:50;10.50;99.90
27164;DHT22;14685;50.618;7.024;2023-04-25T04:36:18;10.50;99.90
27164;DHT22;14685;50.618;7.024;2023-04-25T04:38:49;10.50;99.90
27164;DHT22;14685;50.618;7.024;2023-04-25T04:41:15;10.50;99.90
27164;DHT22;14685;50.618;7.024;2023-04-25T04:43:42;10.50;99.90
27164;DHT22;14685;50.618;7.024;2023-04-25T04:46:10;10.50;99.90
27164;DHT22;14685;50.618;7.024;2023-04-25T04:48:40;10.50;99.90
27164;DHT22;14685;50.618;7.024;2023-04-25T04:51:07;10.50;99.90
27164;DHT22;14685;50.618;7.024;2023-04-25T04:53:34;10.50;99.90
27164;DHT22;14685;50.618;7.024;2023-04-25T04:56:03;10.60;99.90
27164;DHT22;14685;50.618;7.024;2023-04-25T04:58:30;10.60;99.90
27164;DHT22;14685;50.618;7.024;2023-04-25T05:00:57;10.60;99.90
27164;DHT22;14685;50.618;7.024;2023-04-25T05:03:24;10.60;99.90
27164;DHT22;14685;50.618;7.024;2023-04-25T05:05:51;10.60;99.90
27164;DHT22;14685;50.618;7.024;2023-04-25T05:08:18;10.60;99.90
27164;DHT22;14685;50.618;7.024;2023-04-25T05:10:45;10.60;99.90
27164;DHT22;14685;50.618;7.024;2023-04-25T05:13:12;10.60;99.90
27164;DHT22;14685;50.618;7.024;2023-04-25T05:15:39;10.60;99.90
27164;DHT22;14685;50.618;7.024;2023-04-25T05:18:06;10.60;99.90
27164;DHT22;14685;50.618;7.024;2023-04-25T05:20:33;10.60;99.90
27164;DHT22;14685;50.618;7.024;2023-04-25T05:23:00;10.60;99.90
27164;DHT22;14685;50.618;7.024;2023-04-25T05:25:27;10.60;99.90
27164;DHT22;14685;50.618;7.024;2023-04-25T05:27:54;10.60;99.90
27164;DHT22;14685;50.618;7.024;2023-04-25T05:30:21;10.60;99.90
27164;DHT22;14685;50.618;7.024;2023-04-25T05:32:48;10.60;99.90
27164;DHT22;14685;50.618;7.024;2023-04-25T05:35:15;10.50;99.90
27164;DHT22;14685;50.618;7.024;2023-04-25T05:37:42;10.50;99.90
27164;DHT22;14685;50.618;7.024;2023-04-25T05:40:09;10.50;99.90
27164;DHT22;14685;50.618;7.024;2023-04-25T05:42:37;10.50;99.90
27164;DHT22;14685;50.618;7.024;2023-04-25T05:45:04;10.60;99.90
27164;DHT22;14685;50.618;7.024;2023-04-25T05:47:32;10.60;99.90
27164;DHT22;14685;50.618;7.024;2023-04-25T05:49:59;10.60;99.90
27164;DHT22;14685;50.618;7.024;2023-04-25T05:52:26;10.70;99.90
27164;DHT22;14685;50.618;7.024;2023-04-25T05:54:53;10.70;99.90
27164;DHT22;14685;50.618;7.024;2023-04-25T05:57:24;10.80;99.90
27164;DHT22;14685;50.618;7.024;2023-04-25T05:59:52;10.90;99.90
27164;DHT22;14685;50.618;7.024;2023-04-25T06:02:21;11.00;99.90
27164;DHT22;14685;50.618;7.024;2023-04-25T06:04:50;11.00;99.90
27164;DHT22;14685;50.618;7.024;2023-04-25T06:07:18;11.10;99.90
27164;DHT22;14685;50.618;7.024;2023-04-25T06:09:47;11.10;99.90
27164;DHT22;14685;50.618;7.024;2023-04-25T06:12:14;11.10;99.90
27164;DHT22;14685;50.618;7.024;2023-04-25T06:14:41;11.00;99.90
27164;DHT22;14685;50.618;7.024;2023-04-25T06:17:08;11.10;99.90
27164;DHT22;14685;50.618;7.024;2023-04-25T06:19:36;11.10;99.90
27164;DHT22;14685;50.618;7.024;2023-04-25T06:22:03;11.10;99.90
27164;DHT22;14685;50.618;7.024;2023-04-25T06:24:30;11.10;99.90
27164;DHT22;14685;50.618;7.024;2023-04-25T06:26:57;11.30;99.90
27164;DHT22;14685;50.618;7.024;2023-04-25T06:29:24;11.20;99.90
27164;DHT22;14685;50.618;7.024;2023-04-25T06:31:51;11.30;99.90
27164;DHT22;14685;50.618;7.024;2023-04-25T06:34:18;11.30;99.90
27164;DHT22;14685;50.618;7.024;2023-04-25T06:36:45;11.30;99.90
27164;DHT22;14685;50.618;7.024;2023-04-25T06:39:12;11.20;99.90
27164;DHT22;14685;50.618;7.024;2023-04-25T06:41:39;11.30;99.90
27164;DHT22;14685;50.618;7.024;2023-04-25T06:44:06;11.30;99.90
27164;DHT22;14685;50.618;7.024;2023-04-25T06:46:33;11.40;99.90
27164;DHT22;14685;50.618;7.024;2023-04-25T06:49:00;11.40;99.90
27164;DHT22;14685;50.618;7.024;2023-04-25T06:51:29;11.40;99.90
27164;DHT22;14685;50.618;7.024;2023-04-25T06:53:57;11.40;99.90
27164;DHT22;14685;50.618;7.024;2023-04-25T06:56:24;11.50;99.90
27164;DHT22;14685;50.618;7.024;2023-04-25T06:58:51;11.60;99.90
27164;DHT22;14685;50.618;7.024;2023-04-25T07:01:18;11.60;99.90
27164;DHT22;14685;50.618;7.024;2023-04-25T07:03:45;11.60;99.90
27164;DHT22;14685;50.618;7.024;2023-04-25T07:06:12;11.90;99.90
27164;DHT22;14685;50.618;7.024;2023-04-25T07:08:40;12.00;99.90
27164;DHT22;14685;50.618;7.024;2023-04-25T07:11:07;12.00;99.90
27164;DHT22;14685;50.618;7.024;2023-04-25T07:13:34;12.10;99.90
27164;DHT22;14685;50.618;7.024;2023-04-25T07:16:01;12.20;99.90
27164;DHT22;14685;50.618;7.024;2023-04-25T07:18:28;12.20;99.90
27164;DHT22;14685;50.618;7.024;2023-04-25T07:20:58;12.20;99.90
27164;DHT22;14685;50.618;7.024;2023-04-25T07:23:24;12.20;99.90
27164;DHT22;14685;50.618;7.024;2023-04-25T07:25:51;12.20;99.90
27164;DHT22;14685;50.618;7.024;2023-04-25T07:28:18;12.20;99.90
27164;DHT22;14685;50.618;7.024;2023-04-25T07:30:45;12.30;99.90
27164;DHT22;14685;50.618;7.024;2023-04-25T07:33:12;12.20;99.90
27164;DHT22;14685;50.618;7.024;2023-04-25T07:35:39;12.30;99.90
27164;DHT22;14685;50.618;7.024;2023-04-25T07:38:06;12.30;99.90
27164;DHT22;14685;50.618;7.024;2023-04-25T07:40:33;12.30;99.90
27164;DHT22;14685;50.618;7.024;2023-04-25T07:43:00;12.30;99.90
27164;DHT22;14685;50.618;7.024;2023-04-25T07:45:27;12.40;99.90
27164;DHT22;14685;50.618;7.024;2023-04-25T07:47:54;12.50;99.90
27164;DHT22;14685;50.618;7.024;2023-04-25T07:50:21;12.50;99.90
27164;DHT22;14685;50.618;7.024;2023-04-25T07:52:48;12.50;99.90
27164;DHT22;14685;50.618;7.024;2023-04-25T07:55:15;12.40;99.90
27164;DHT22;14685;50.618;7.024;2023-04-25T07:57:42;12.20;99.90
27164;DHT22;14685;50.618;7.024;2023-04-25T08:00:09;12.30;99.90
27164;DHT22;14685;50.618;7.024;2023-04-25T08:02:37;12.30;99.90
27164;DHT22;14685;50.618;7.024;2023-04-25T08:05:04;12.30;99.90
27164;DHT22;14685;50.618;7.024;2023-04-25T08:07:31;12.30;99.90
27164;DHT22;14685;50.618;7.024;2023-04-25T08:09:59;12.30;99.90
27164;DHT22;14685;50.618;7.024;2023-04-25T08:12:27;12.30;99.90
27164;DHT22;14685;50.618;7.024;2023-04-25T08:14:54;12.30;99.90
27164;DHT22;14685;50.618;7.024;2023-04-25T08:17:21;12.30;99.90
27164;DHT22;14685;50.618;7.024;2023-04-25T08:19:49;12.30;99.90
27164;DHT22;14685;50.618;7.024;2023-04-25T08:22:16;12.30;99.90
27164;DHT22;14685;50.618;7.024;2023-04-25T08:24:43;12.40;99.90
27164;DHT22;14685;50.618;7.024;2023-04-25T08:27:10;12.40;99.90
27164;DHT22;14685;50.618;7.024;2023-04-25T08:29:38;12.50;99.90
27164;DHT22;14685;50.618;7.024;2023-04-25T08:32:05;12.60;99.90
27164;DHT22;14685;50.618;7.024;2023-04-25T08:34:35;12.70;99.90
27164;DHT22;14685;50.618;7.024;2023-04-25T08:37:03;12.60;99.90
27164;DHT22;14685;50.618;7.024;2023-04-25T08:39:31;12.70;99.90
27164;DHT22;14685;50.618;7.024;2023-04-25T08:41:58;12.60;99.90
27164;DHT22;14685;50.618;7.024;2023-04-25T08:44:25;12.60;99.90
27164;DHT22;14685;50.618;7.024;2023-04-25T08:46:52;12.60;99.90
27164;DHT22;14685;50.618;7.024;2023-04-25T08:49:19;12.50;99.90
27164;DHT22;14685;50.618;7.024;2023-04-25T08:51:47;12.50;99.90
27164;DHT22;14685;50.618;7.024;2023-04-25T08:54:14;12.50;99.90
27164;DHT22;14685;50.618;7.024;2023-04-25T08:57:02;12.50;99.90
27164;DHT22;14685;50.618;7.024;2023-04-25T08:59:30;12.50;99.90
27164;DHT22;14685;50.618;7.024;2023-04-25T09:01:57;12.50;99.90
27164;DHT22;14685;50.618;7.024;2023-04-25T09:04:24;12.40;99.90
27164;DHT22;14685;50.618;7.024;2023-04-25T09:06:52;12.30;99.90
27164;DHT22;14685;50.618;7.024;2023-04-25T09:09:18;12.30;99.90
27164;DHT22;14685;50.618;7.024;2023-04-25T09:11:45;12.30;99.90
27164;DHT22;14685;50.618;7.024;2023-04-25T09:14:14;12.30;99.90
27164;DHT22;14685;50.618;7.024;2023-04-25T09:19:25;12.30;99.90
27164;DHT22;14685;50.618;7.024;2023-04-25T09:22:07;12.30;99.90
27164;DHT22;14685;50.618;7.024;2023-04-25T09:24:44;12.30;99.90
27164;DHT22;14685;50.618;7.024;2023-04-25T09:27:18;12.40;99.90
27164;DHT22;14685;50.618;7.024;2023-04-25T09:29:45;12.40;99.90
27164;DHT22;14685;50.618;7.024;2023-04-25T09:32:31;12.40;99.90
27164;DHT22;14685;50.618;7.024;2023-04-25T09:34:58;12.60;99.90
27164;DHT22;14685;50.618;7.024;2023-04-25T09:37:29;12.60;99.90
27164;DHT22;14685;50.618;7.024;2023-04-25T09:39:58;12.70;99.90
27164;DHT22;14685;50.618;7.024;2023-04-25T09:42:28;12.80;99.90
27164;DHT22;14685;50.618;7.024;2023-04-25T09:45:00;12.80;99.90
27164;DHT22;14685;50.618;7.024;2023-04-25T09:47:28;12.80;99.90
27164;DHT22;14685;50.618;7.024;2023-04-25T09:49:55;12.90;99.90
27164;DHT22;14685;50.618;7.024;2023-04-25T09:52:24;13.00;99.90
27164;DHT22;14685;50.618;7.024;2023-04-25T09:54:52;13.00;99.90
27164;DHT22;14685;50.618;7.024;2023-04-25T09:57:21;13.10;99.90
27164;DHT22;14685;50.618;7.024;2023-04-25T09:59:50;13.30;99.90
27164;DHT22;14685;50.618;7.024;2023-04-25T10:02:19;13.40;99.90
27164;DHT22;14685;50.618;7.024;2023-04-25T10:04:49;13.60;99.90
27164;DHT22;14685;50.618;7.024;2023-04-25T10:07:23;13.70;99.90
27164;DHT22;14685;50.618;7.024;2023-04-25T10:10:00;13.80;99.90
27164;DHT22;14685;50.618;7.024;2023-04-25T10:12:29;13.90;99.90
27164;DHT22;14685;50.618;7.024;2023-04-25T10:14:59;13.90;99.90
27164;DHT22;14685;50.618;7.024;2023-04-25T10:17:27;13.90;99.90
27164;DHT22;14685;50.618;7.024;2023-04-25T10:19:55;13.80;99.90
27164;DHT22;14685;50.618;7.024;2023-04-25T10:22:38;13.80;99.90
27164;DHT22;14685;50.618;7.024;2023-04-25T10:25:06;13.80;99.90
27164;DHT22;14685;50.618;7.024;2023-04-25T10:27:38;13.80;99.90
27164;DHT22;14685;50.618;7.024;2023-04-25T10:30:10;13.80;99.90
27164;DHT22;14685;50.618;7.024;2023-04-25T10:32:44;13.80;99.90
27164;DHT22;14685;50.618;7.024;2023-04-25T10:35:23;13.80;99.90
27164;DHT22;14685;50.618;7.024;2023-04-25T10:37:58;13.70;99.90
27164;DHT22;14685;50.618;7.024;2023-04-25T10:40:25;13.70;99.90
27164;DHT22;14685;50.618;7.024;2023-04-25T10:42:53;13.60;99.90
27164;DHT22;14685;50.618;7.024;2023-04-25T10:45:21;13.60;99.90
27164;DHT22;14685;50.618;7.024;2023-04-25T10:47:48;13.50;99.90
27164;DHT22;14685;50.618;7.024;2023-04-25T10:50:15;13.60;99.90
27164;DHT22;14685;50.618;7.024;2023-04-25T10:52:45;13.40;99.90
27164;DHT22;14685;50.618;7.024;2023-04-25T10:55:12;13.50;99.90
27164;DHT22;14685;50.618;7.024;2023-04-25T10:57:41;13.50;99.90
27164;DHT22;14685;50.618;7.024;2023-04-25T11:02:47;13.60;99.90
27164;DHT22;14685;50.618;7.024;2023-04-25T11:05:22;13.70;99.90
27164;DHT22;14685;50.618;7.024;2023-04-25T11:07:51;13.80;99.90
27164;DHT22;14685;50.618;7.024;2023-04-25T11:10:33;13.80;99.90
27164;DHT22;14685;50.618;7.024;2023-04-25T11:13:03;13.80;99.90
27164;DHT22;14685;50.618;7.024;2023-04-25T11:15:31;13.80;99.90
27164;DHT22;14685;50.618;7.024;2023-04-25T11:18:00;13.80;99.90
27164;DHT22;14685;50.618;7.024;2023-04-25T11:20:28;13.70;99.90
27164;DHT22;14685;50.618;7.024;2023-04-25T11:22:58;13.80;99.90
27164;DHT22;14685;50.618;7.024;2023-04-25T11:25:26;13.80;99.90
27164;DHT22;14685;50.618;7.024;2023-04-25T11:27:58;13.90;99.90
27164;DHT22;14685;50.618;7.024;2023-04-25T11:30:26;14.00;99.90
27164;DHT22;14685;50.618;7.024;2023-04-25T11:32:54;14.00;99.90
27164;DHT22;14685;50.618;7.024;2023-04-25T11:35:21;14.10;99.90
27164;DHT22;14685;50.618;7.024;2023-04-25T11:37:50;14.10;99.90
27164;DHT22;14685;50.618;7.024;2023-04-25T11:40:17;14.20;99.90
27164;DHT22;14685;50.618;7.024;2023-04-25T11:42:46;14.20;99.90
27164;DHT22;14685;50.618;7.024;2023-04-25T11:45:14;14.20;99.90
27164;DHT22;14685;50.618;7.024;2023-04-25T11:47:42;14.20;99.90
27164;DHT22;14685;50.618;7.024;2023-04-25T11:50:09;14.40;99.90
27164;DHT22;14685;50.618;7.024;2023-04-25T11:52:43;14.40;99.90
27164;DHT22;14685;50.618;7.024;2023-04-25T11:55:16;14.40;99.90
27164;DHT22;14685;50.618;7.024;2023-04-25T11:57:44;14.40;99.90
27164;DHT22;14685;50.618;7.024;2023-04-25T12:00:12;14.40;99.90
27164;DHT22;14685;50.618;7.024;2023-04-25T12:02:51;14.30;99.90
27164;DHT22;14685;50.618;7.024;2023-04-25T12:05:18;14.20;99.90
27164;DHT22;14685;50.618;7.024;2023-04-25T12:07:58;14.10;99.90
27164;DHT22;14685;50.618;7.024;2023-04-25T12:10:25;14.00;99.90
27164;DHT22;14685;50.618;7.024;2023-04-25T12:12:52;14.00;99.90
27164;DHT22;14685;50.618;7.024;2023-04-25T12:15:24;14.00;99.90
27164;DHT22;14685;50.618;7.024;2023-04-25T12:17:53;14.00;99.90
27164;DHT22;14685;50.618;7.024;2023-04-25T12:20:25;14.00;99.90
27164;DHT22;14685;50.618;7.024;2023-04-25T12:22:52;14.00;99.90
27164;DHT22;14685;50.618;7.024;2023-04-25T12:25:39;14.00;99.90
27164;DHT22;14685;50.618;7.024;2023-04-25T12:28:16;14.00;99.90
27164;DHT22;14685;50.618;7.024;2023-04-25T12:31:06;14.00;99.90
27164;DHT22;14685;50.618;7.024;2023-04-25T12:33:36;14.00;99.90
27164;DHT22;14685;50.618;7.024;2023-04-25T12:36:06;14.00;99.90
27164;DHT22;14685;50.618;7.024;2023-04-25T12:38:39;14.00;99.90
27164;DHT22;14685;50.618;7.024;2023-04-25T12:41:06;13.90;99.90
27164;DHT22;14685;50.618;7.024;2023-04-25T12:43:34;14.00;99.90
27164;DHT22;14685;50.618;7.024;2023-04-25T12:46:01;14.00;99.90
27164;DHT22;14685;50.618;7.024;2023-04-25T12:48:27;14.00;99.90
27164;DHT22;14685;50.618;7.024;2023-04-25T12:50:54;14.00;99.90
27164;DHT22;14685;50.618;7.024;2023-04-25T12:53:22;14.00;99.90
27164;DHT22;14685;50.618;7.024;2023-04-25T12:55:51;14.00;99.90
27164;DHT22;14685;50.618;7.024;2023-04-25T12:58:18;14.00;99.90
27164;DHT22;14685;50.618;7.024;2023-04-25T13:00:46;14.00;99.90
27164;DHT22;14685;50.618;7.024;2023-04-25T13:03:14;14.10;99.90
27164;DHT22;14685;50.618;7.024;2023-04-25T13:05:42;14.10;99.90
27164;DHT22;14685;50.618;7.024;2023-04-25T13:08:09;14.10;99.90
27164;DHT22;14685;50.618;7.024;2023-04-25T13:10:36;14.20;99.90
27164;DHT22;14685;50.618;7.024;2023-04-25T13:13:06;14.20;99.90
27164;DHT22;14685;50.618;7.024;2023-04-25T13:15:33;14.30;99.90
27164;DHT22;14685;50.618;7.024;2023-04-25T13:18:00;14.30;99.90
27164;DHT22;14685;50.618;7.024;2023-04-25T13:20:28;14.30;99.90
27164;DHT22;14685;50.618;7.024;2023-04-25T13:22:58;14.30;99.90
27164;DHT22;14685;50.618;7.024;2023-04-25T13:25:27;14.30;99.90
27164;DHT22;14685;50.618;7.024;2023-04-25T13:27:55;14.30;99.90
27164;DHT22;14685;50.618;7.024;2023-04-25T13:30:22;14.40;99.90
27164;DHT22;14685;50.618;7.024;2023-04-25T13:32:49;14.40;99.90
27164;DHT22;14685;50.618;7.024;2023-04-25T13:35:16;14.50;99.90
27164;DHT22;14685;50.618;7.024;2023-04-25T13:37:43;14.40;99.90
27164;DHT22;14685;50.618;7.024;2023-04-25T13:40:11;14.40;99.90
27164;DHT22;14685;50.618;7.024;2023-04-25T13:42:38;14.40;99.90
27164;DHT22;14685;50.618;7.024;2023-04-25T13:45:06;14.50;99.90
27164;DHT22;14685;50.618;7.024;2023-04-25T13:47:34;14.50;99.90
27164;DHT22;14685;50.618;7.024;2023-04-25T13:50:02;14.60;99.90
27164;DHT22;14685;50.618;7.024;2023-04-25T13:52:30;14.60;99.90
27164;DHT22;14685;50.618;7.024;2023-04-25T13:54:57;14.60;99.90
27164;DHT22;14685;50.618;7.024;2023-04-25T13:57:24;14.60;99.90
27164;DHT22;14685;50.618;7.024;2023-04-25T13:59:52;14.60;99.90
27164;DHT22;14685;50.618;7.024;2023-04-25T14:02:19;14.60;99.90
27164;DHT22;14685;50.618;7.024;2023-04-25T14:04:46;14.60;99.90
27164;DHT22;14685;50.618;7.024;2023-04-25T14:07:14;14.50;99.90
27164;DHT22;14685;50.618;7.024;2023-04-25T14:09:42;14.40;99.90
27164;DHT22;14685;50.618;7.024;2023-04-25T14:12:09;14.40;99.90
27164;DHT22;14685;50.618;7.024;2023-04-25T14:14:38;14.30;99.90
27164;DHT22;14685;50.618;7.024;2023-04-25T14:17:05;14.30;99.90
27164;DHT22;14685;50.618;7.024;2023-04-25T14:19:33;14.20;99.90
27164;DHT22;14685;50.618;7.024;2023-04-25T14:22:00;14.20;99.90
27164;DHT22;14685;50.618;7.024;2023-04-25T14:24:27;14.10;99.90
27164;DHT22;14685;50.618;7.024;2023-04-25T14:26:58;14.10;99.90
27164;DHT22;14685;50.618;7.024;2023-04-25T14:29:25;14.00;99.90
27164;DHT22;14685;50.618;7.024;2023-04-25T14:31:52;14.00;99.90
27164;DHT22;14685;50.618;7.024;2023-04-25T14:34:20;14.00;99.90
27164;DHT22;14685;50.618;7.024;2023-04-25T14:36:47;14.00;99.90
27164;DHT22;14685;50.618;7.024;2023-04-25T14:39:14;14.00;99.90
27164;DHT22;14685;50.618;7.024;2023-04-25T14:41:41;14.00;99.90
27164;DHT22;14685;50.618;7.024;2023-04-25T14:44:08;14.10;99.90
27164;DHT22;14685;50.618;7.024;2023-04-25T14:46:36;14.10;99.90
27164;DHT22;14685;50.618;7.024;2023-04-25T14:49:03;14.20;99.90
27164;DHT22;14685;50.618;7.024;2023-04-25T14:51:30;14.20;99.90
27164;DHT22;14685;50.618;7.024;2023-04-25T14:53:57;14.20;99.90
27164;DHT22;14685;50.618;7.024;2023-04-25T14:56:25;14.20;99.90
27164;DHT22;14685;50.618;7.024;2023-04-25T14:58:53;14.20;99.90
27164;DHT22;14685;50.618;7.024;2023-04-25T15:01:20;14.20;99.90
27164;DHT22;14685;50.618;7.024;2023-04-25T15:03:47;14.20;99.90
27164;DHT22;14685;50.618;7.024;2023-04-25T15:06:15;14.20;99.90
27164;DHT22;14685;50.618;7.024;2023-04-25T15:08:42;14.20;99.90
27164;DHT22;14685;50.618;7.024;2023-04-25T15:11:09;14.20;99.90
27164;DHT22;14685;50.618;7.024;2023-04-25T15:13:37;14.20;99.90
27164;DHT22;14685;50.618;7.024;2023-04-25T15:16:08;14.30;99.90
27164;DHT22;14685;50.618;7.024;2023-04-25T15:18:36;14.30;99.90
27164;DHT22;14685;50.618;7.024;2023-04-25T15:21:03;14.30;99.90
27164;DHT22;14685;50.618;7.024;2023-04-25T15:23:31;14.30;99.90
27164;DHT22;14685;50.618;7.024;2023-04-25T15:25:58;14.20;99.90
27164;DHT22;14685;50.618;7.024;2023-04-25T15:28:24;14.20;99.90
27164;DHT22;14685;50.618;7.024;2023-04-25T15:30:51;14.10;99.90
27164;DHT22;14685;50.618;7.024;2023-04-25T15:33:18;14.10;99.90
27164;DHT22;14685;50.618;7.024;2023-04-25T15:35:45;14.10;99.90
27164;DHT22;14685;50.618;7.024;2023-04-25T15:38:12;14.00;99.90
27164;DHT22;14685;50.618;7.024;2023-04-25T15:40:40;14.10;99.90